Terminal Aerodrome Forecast
Issued by NWS

Home | Current Version | Previous Version | Text Only | Print | Product List | Glossary On
Versions: 1 2 3 4 5 6 7 8 9 10 11 12 13 14 15 16
000
FTUS45 KABQ 022334
TAFTCC
TAF
KTCC 022334Z 0300/0324 22016G26KT P6SM VCSH SCT110 BKN250
     FM030100 20012KT P6SM SCT100 BKN250
     FM031700 23012G20KT P6SM SCT100 BKN200=

USA.gov is the U.S. government's official web portal to all federal, state and local government web resources and services.